首页
METAR-TAF:

METAR-TAF

机场 :

亞歷山德魯波利斯德謨克利特國際機場

亞歷山德魯波利斯, 希腊

纬度: 40-51N, 经度: 025-55E, 海拔: 7米

当前天气观测

该预报发布于33分钟前的16:20 UTC
风速3节,风向多变
温度 26°C
湿度 58%
气压 1018 hPa
能见度10公里或以上
1500米以下无云,无积雨云

METAR: LGAL 231620Z VRB03KT CAVOK 26/17 Q1018

时间: 19:53 (16:53 UTC)

预报

该预报发布于2小时和53分钟前的14:00 UTC
预报有效从23日的 15点(UTC)到 23日的 24点(UTC)
风速5节,风向多变
能见度10公里或以上
少量云层高于2000英尺
成为
从 23日的 16点(UTC)到 23日的 18点(UTC)
风速12节,风向

TAF: LGAL 231400Z 2315/2324 VRB05KT 9999 FEW020 BECMG 2316/2318 10012KT

超过4000个机场的气象观测和天气预报(METAR&TAF报告)。

可查询的气象台以黄色和红色小点在地图上表示。

将鼠标移到小点上方,可查看气象台名称。

然后点击查看天气观测和预报。

如需切换地图:点击带黑十字的绿色按钮放大地图;点击带横线的绿色按钮缩小地图;或者点击绿色箭头查看邻近地区的地图。


METAR-TAF: